Time;durP1;ratioP1;P1;durP2;ratioP2;P2;SDS_P1;SDS_P2;PMS_P1;PMS_P2;Temp;Humidity;BMP_temperature;BMP_pressure;BME280_temperature;BME280_humidity;BME280_pressure;Samples;Min_cycle;Max_cycle;Signal;HPM_P1;HPM_P2
2021/05/01 00:01:33;;;;;;;6.10;4.82;;;;;;;8.47;70.17;99869.25;4945254;28;20067;-81
2021/05/01 00:04:00;;;;;;;7.40;5.10;;;;;;;8.25;70.52;99863.03;4950937;28;20066;-81
2021/05/01 00:06:27;;;;;;;8.77;5.30;;;;;;;8.12;70.67;99862.13;4943116;28;20061;-81
2021/05/01 00:08:55;;;;;;;8.68;5.20;;;;;;;8.18;70.39;99861.28;4950508;28;20370;-82
2021/05/01 00:11:23;;;;;;;7.22;4.90;;;;;;;7.94;71.07;99859.44;4942393;28;20392;-81
2021/05/01 00:13:56;;;;;;;7.50;5.28;;;;;;;7.93;70.57;99844.69;4962625;28;20111;-82
2021/05/01 00:16:25;;;;;;;11.05;5.57;;;;;;;7.55;71.87;99854.84;4926350;28;20066;-80
2021/05/01 00:18:53;;;;;;;6.18;4.90;;;;;;;7.53;72.26;99851.34;4948898;28;20043;-80
2021/05/01 00:21:19;;;;;;;13.35;5.88;;;;;;;7.44;71.89;99851.28;4939544;28;20083;-80
2021/05/01 00:23:46;;;;;;;7.78;5.82;;;;;;;7.35;72.03;99846.91;4947218;28;20122;-81
2021/05/01 00:26:13;;;;;;;11.45;6.50;;;;;;;7.06;72.84;99845.78;4974649;28;20047;-82
2021/05/01 00:28:40;;;;;;;8.35;6.85;;;;;;;7.01;72.81;99845.72;4950598;28;20062;-79
2021/05/01 00:31:07;;;;;;;6.47;5.72;;;;;;;7.03;72.59;99845.75;4960750;28;20540;-80
2021/05/01 00:33:35;;;;;;;8.88;6.43;;;;;;;6.95;72.57;99850.03;4963183;28;20451;-80
2021/05/01 00:36:03;;;;;;;11.93;7.53;;;;;;;6.78;72.88;99848.97;4947294;28;20043;-80
2021/05/01 00:38:29;;;;;;;9.23;7.22;;;;;;;6.39;74.08;99839.88;4962084;28;20059;-81
2021/05/01 00:40:56;;;;;;;10.48;7.78;;;;;;;6.49;73.15;99844.34;4921630;29;20133;-81
2021/05/01 00:43:22;;;;;;;20.15;9.32;;;;;;;6.25;74.03;99838.84;4941487;28;20078;-81
2021/05/01 00:45:48;;;;;;;13.30;9.00;;;;;;;6.53;72.52;99842.63;4937928;28;20471;-82
2021/05/01 00:48:15;;;;;;;16.02;9.30;;;;;;;6.39;72.85;99842.50;4945535;28;20051;-81
2021/05/01 00:50:41;;;;;;;13.40;9.05;;;;;;;6.36;72.66;99847.66;4944401;28;20128;-81
2021/05/01 00:53:08;;;;;;;18.02;9.48;;;;;;;6.51;72.15;99842.66;4945920;28;20043;-77
2021/05/01 00:55:36;;;;;;;15.05;10.40;;;;;;;6.19;73.08;99843.97;4945136;28;20050;-80
2021/05/01 00:58:03;;;;;;;18.75;10.15;;;;;;;6.09;73.46;99842.97;4981083;28;20058;-82
2021/05/01 01:03:17;;;;;;;19.38;10.77;;;;;;;5.79;74.27;99845.16;4948789;28;20467;-82
2021/05/01 01:05:44;;;;;;;13.38;10.52;;;;;;;5.71;74.25;99839.84;4956344;28;20043;-80
2021/05/01 01:08:11;;;;;;;14.30;10.98;;;;;;;5.93;73.94;99847.97;4950822;28;20467;-80
2021/05/01 01:10:38;;;;;;;16.40;10.25;;;;;;;5.96;73.45;99843.69;4928198;28;20160;-82
2021/05/01 01:13:04;;;;;;;15.88;10.63;;;;;;;5.96;73.27;99838.50;4925278;29;20421;-81
2021/05/01 01:15:32;;;;;;;15.60;9.45;;;;;;;5.91;73.16;99841.88;4943808;28;20342;-81
2021/05/01 01:18:18;;;;;;;18.58;10.02;;;;;;;6.05;72.15;99842.91;4945929;28;20506;-81
2021/05/01 01:20:45;;;;;;;16.38;9.65;;;;;;;5.84;72.58;99840.03;4931915;28;20117;-81
2021/05/01 01:23:11;;;;;;;16.10;9.43;;;;;;;5.51;73.58;99843.88;4945884;28;20460;-81
2021/05/01 01:25:39;;;;;;;11.00;8.50;;;;;;;5.61;73.59;99847.47;4944025;28;20043;-80
2021/05/01 01:28:07;;;;;;;12.07;9.20;;;;;;;5.72;72.67;99836.41;4947632;28;20110;-78
2021/05/01 01:30:35;;;;;;;15.77;9.35;;;;;;;5.63;72.84;99843.16;4944643;28;20051;-81
2021/05/01 01:33:05;;;;;;;15.50;10.57;;;;;;;5.65;72.64;99846.66;4966275;28;20501;-79
2021/05/01 01:35:33;;;;;;;14.18;8.98;;;;;;;5.44;73.24;99839.44;4959491;28;20074;-81
2021/05/01 01:38:00;;;;;;;15.35;8.88;;;;;;;5.38;73.29;99839.34;4945336;28;20772;-80
2021/05/01 01:40:26;;;;;;;16.88;9.63;;;;;;;5.36;73.13;99845.34;4932350;29;20062;-80
2021/05/01 01:42:54;;;;;;;15.75;9.55;;;;;;;5.26;73.61;99837.44;4941769;28;20039;-81
2021/05/01 01:45:29;;;;;;;12.15;9.38;;;;;;;5.45;73.35;99833.41;4937854;28;20047;-80
2021/05/01 01:47:57;;;;;;;13.85;10.48;;;;;;;5.26;74.31;99836.56;4959137;28;20133;-81
2021/05/01 01:50:25;;;;;;;16.00;11.32;;;;;;;5.33;74.64;99832.34;4949910;28;20071;-81
2021/05/01 01:52:53;;;;;;;14.77;10.43;;;;;;;5.46;73.75;99832.56;4948551;28;20042;-81
2021/05/01 01:55:21;;;;;;;16.20;11.27;;;;;;;5.45;73.88;99825.66;4965870;28;20058;-81
2021/05/01 01:57:48;;;;;;;14.18;10.52;;;;;;;5.49;73.72;99831.72;4966650;28;20053;-81
2021/05/01 02:00:24;;;;;;;11.63;9.70;;;;;;;5.57;73.70;99835.28;4951430;28;20518;-80
2021/05/01 02:02:51;;;;;;;14.20;9.95;;;;;;;5.48;73.15;99838.63;4951413;28;20121;-81
2021/05/01 02:05:20;;;;;;;15.00;10.25;;;;;;;5.34;73.85;99834.97;4950035;28;20051;-79
2021/05/01 02:07:47;;;;;;;18.88;11.60;;;;;;;5.43;73.85;99832.50;4948264;28;20082;-79
2021/05/01 02:10:15;;;;;;;17.85;11.88;;;;;;;5.46;73.70;99829.09;4949130;28;20051;-81
2021/05/01 02:12:43;;;;;;;16.23;12.27;;;;;;;5.59;73.74;99823.25;4948287;28;20495;-81
2021/05/01 02:15:13;;;;;;;19.02;11.88;;;;;;;5.73;73.42;99826.91;4953459;28;20134;-80
2021/05/01 02:17:42;;;;;;;17.23;12.18;;;;;;;5.68;73.19;99826.84;4963811;28;20154;-81
2021/05/01 02:20:11;;;;;;;16.40;12.73;;;;;;;5.60;73.92;99820.69;4943846;28;20050;-79
2021/05/01 02:22:39;;;;;;;18.00;12.30;;;;;;;5.49;73.99;99824.84;4946284;28;20134;-80
2021/05/01 02:25:07;;;;;;;24.70;13.57;;;;;;;5.71;73.48;99828.59;4944194;28;20123;-81
2021/05/01 02:27:33;;;;;;;18.77;13.55;;;;;;;5.69;73.30;99826.00;4946609;28;20101;-80
2021/05/01 02:30:01;;;;;;;20.40;13.70;;;;;;;5.76;73.49;99826.06;4946797;28;20047;-78
2021/05/01 02:32:27;;;;;;;17.75;13.25;;;;;;;5.72;73.63;99822.56;4966027;28;20043;-81
2021/05/01 02:34:54;;;;;;;19.83;13.85;;;;;;;5.69;73.39;99817.34;4932587;28;20510;-80
2021/05/01 02:37:22;;;;;;;20.27;13.88;;;;;;;5.65;73.60;99824.22;4943453;28;20058;-81
2021/05/01 02:39:48;;;;;;;19.48;14.55;;;;;;;5.51;73.83;99828.34;4932405;28;20044;-80
2021/05/01 02:42:14;;;;;;;21.52;13.98;;;;;;;5.60;73.46;99814.63;4944990;28;20047;-81
2021/05/01 02:44:41;;;;;;;20.63;14.65;;;;;;;5.59;73.38;99820.66;4946836;28;20142;-80
2021/05/01 02:47:08;;;;;;;20.90;15.48;;;;;;;5.43;73.88;99822.16;4927859;28;20139;-78
2021/05/01 02:49:35;;;;;;;20.13;15.70;;;;;;;5.51;74.13;99815.38;4965618;28;20057;-80
2021/05/01 02:52:02;;;;;;;21.48;16.60;;;;;;;5.53;74.01;99816.25;4950623;28;20050;-81
2021/05/01 02:54:29;;;;;;;22.88;15.93;;;;;;;5.34;73.80;99819.41;4944412;28;20067;-81
2021/05/01 02:56:55;;;;;;;21.48;15.57;;;;;;;5.46;73.80;99818.75;4948645;28;20087;-78
2021/05/01 02:59:22;;;;;;;22.30;16.08;;;;;;;5.52;73.76;99811.03;4953143;28;20521;-80
2021/05/01 03:01:49;;;;;;;28.10;16.13;;;;;;;5.47;73.22;99815.28;4950756;28;20072;-80
2021/05/01 03:04:16;;;;;;;22.25;15.45;;;;;;;5.41;73.19;99823.84;4962399;28;20043;-79
2021/05/01 03:06:43;;;;;;;21.63;15.32;;;;;;;5.33;73.15;99820.25;4967737;28;20438;-80
2021/05/01 03:09:10;;;;;;;19.52;14.68;;;;;;;5.25;73.20;99820.16;4953049;28;20410;-80
2021/05/01 03:11:36;;;;;;;20.25;14.68;;;;;;;5.22;73.51;99817.53;4966705;28;20395;-79
2021/05/01 03:14:03;;;;;;;20.33;14.88;;;;;;;5.15;73.33;99815.66;4968228;28;20055;-79
2021/05/01 03:16:30;;;;;;;19.92;14.50;;;;;;;5.36;72.84;99816.88;4966185;28;20051;-80
2021/05/01 03:18:56;;;;;;;20.70;16.23;;;;;;;5.31;73.14;99824.56;4966801;28;20050;-81
2021/05/01 03:21:24;;;;;;;23.40;16.52;;;;;;;5.37;73.19;99810.84;4967594;28;20501;-81
2021/05/01 03:23:51;;;;;;;25.23;17.27;;;;;;;5.21;73.80;99808.00;4967566;28;20115;-81
2021/05/01 03:26:20;;;;;;;24.13;17.25;;;;;;;5.23;73.81;99810.59;4966663;28;20137;-81
2021/05/01 03:28:46;;;;;;;25.63;16.33;;;;;;;4.99;74.79;99818.00;4967007;28;20051;-80
2021/05/01 03:31:13;;;;;;;27.05;16.17;;;;;;;5.19;74.01;99811.41;4949140;28;20062;-80
2021/05/01 03:33:41;;;;;;;24.50;17.88;;;;;;;5.08;74.03;99806.06;4970431;28;20486;-81
2021/05/01 03:36:09;;;;;;;24.85;17.15;;;;;;;5.19;73.51;99811.41;4970368;28;20049;-79
2021/05/01 03:38:35;;;;;;;24.60;17.25;;;;;;;5.04;74.23;99809.44;4965712;28;20161;-81
2021/05/01 03:41:02;;;;;;;25.48;17.95;;;;;;;5.06;74.04;99815.53;4971217;28;20118;-81
2021/05/01 03:43:29;;;;;;;27.33;18.00;;;;;;;5.07;73.73;99809.50;4967253;28;20047;-82
2021/05/01 03:45:56;;;;;;;26.20;18.30;;;;;;;5.03;73.98;99815.50;4967243;28;20070;-82
2021/05/01 03:48:22;;;;;;;26.48;17.42;;;;;;;5.05;74.17;99813.78;4937219;28;20086;-82
2021/05/01 03:50:49;;;;;;;26.77;17.92;;;;;;;5.09;73.64;99804.34;4969696;28;20153;-82
2021/05/01 03:53:16;;;;;;;23.80;17.52;;;;;;;5.00;74.36;99807.66;4951875;28;20056;-82
2021/05/01 03:55:42;;;;;;;28.23;19.23;;;;;;;4.97;74.18;99810.19;4971427;28;20050;-82
2021/05/01 03:58:09;;;;;;;29.30;20.55;;;;;;;4.73;75.87;99805.47;4970078;28;20054;-82
2021/05/01 04:00:35;;;;;;;34.58;20.17;;;;;;;4.96;75.71;99800.69;4967371;28;20438;-82
2021/05/01 04:03:02;;;;;;;34.75;21.88;;;;;;;5.17;74.81;99806.22;4962735;28;20062;-81
2021/05/01 04:05:28;;;;;;;28.77;20.52;;;;;;;5.28;74.01;99803.78;4932900;28;20055;-82
2021/05/01 04:07:55;;;;;;;30.60;21.20;;;;;;;5.28;74.22;99806.38;4961588;28;20698;-83
2021/05/01 04:10:21;;;;;;;37.45;22.42;;;;;;;5.04;74.65;99804.25;4948439;28;20129;-81
2021/05/01 04:12:48;;;;;;;30.83;20.38;;;;;;;5.16;74.15;99806.19;4933102;28;20138;-83
2021/05/01 04:15:15;;;;;;;39.45;21.35;;;;;;;5.08;74.16;99807.78;4945542;28;20527;-84
2021/05/01 04:17:43;;;;;;;29.30;19.75;;;;;;;5.04;74.34;99814.63;4947734;28;20050;-84
2021/05/01 04:20:11;;;;;;;32.10;21.40;;;;;;;4.77;75.00;99804.69;4934013;29;20052;-83
2021/05/01 04:22:38;;;;;;;32.38;21.58;;;;;;;4.72;75.65;99811.50;4917765;28;21522;-79
2021/05/01 04:25:05;;;;;;;33.97;19.95;;;;;;;5.01;74.47;99808.53;4934645;28;20102;-83
2021/05/01 04:27:32;;;;;;;34.13;20.88;;;;;;;4.86;74.44;99809.13;4934057;28;20051;-84
2021/05/01 04:29:58;;;;;;;31.52;21.17;;;;;;;5.05;74.28;99810.31;4950741;28;20051;-84
2021/05/01 04:32:25;;;;;;;26.65;19.38;;;;;;;5.07;74.00;99814.69;4946994;28;20119;-84
2021/05/01 04:34:51;;;;;;;30.40;20.48;;;;;;;5.17;73.71;99819.16;4929761;28;20495;-84
2021/05/01 04:37:17;;;;;;;30.40;22.33;;;;;;;5.14;74.03;99816.50;4951473;28;20370;-84
2021/05/01 04:39:44;;;;;;;33.75;20.73;;;;;;;5.02;74.25;99816.31;4947843;28;20515;-85
2021/05/01 04:42:12;;;;;;;31.08;20.90;;;;;;;4.95;75.60;99814.47;4935055;28;20097;-83
2021/05/01 04:44:40;;;;;;;33.42;20.88;;;;;;;5.22;74.66;99816.66;4949777;28;20050;-85
2021/05/01 04:47:07;;;;;;;28.38;19.17;;;;;;;5.01;75.16;99817.16;4949743;28;20435;-84
2021/05/01 04:49:34;;;;;;;32.65;21.63;;;;;;;5.17;75.54;99816.56;4949747;28;20051;-84
2021/05/01 04:52:02;;;;;;;29.75;19.83;;;;;;;5.07;75.66;99817.28;4934861;28;20047;-85
2021/05/01 04:54:29;;;;;;;35.67;21.63;;;;;;;5.37;75.17;99821.19;4926902;29;20079;-84
2021/05/01 04:56:55;;;;;;;30.67;21.98;;;;;;;5.56;74.65;99815.44;4951636;28;20062;-84
2021/05/01 04:59:22;;;;;;;41.00;23.08;;;;;;;5.56;75.30;99828.41;4933226;28;20525;-84
2021/05/01 05:01:48;;;;;;;35.42;23.17;;;;;;;5.50;75.99;99825.72;4951879;28;20067;-85
2021/05/01 05:04:15;;;;;;;35.67;22.70;;;;;;;5.64;75.70;99826.78;4946924;28;20078;-84
2021/05/01 05:06:41;;;;;;;39.80;24.58;;;;;;;5.62;75.94;99825.88;4945389;28;20078;-84
2021/05/01 05:09:08;;;;;;;36.20;24.23;;;;;;;5.85;75.40;99826.22;4945411;28;20525;-80
2021/05/01 05:11:34;;;;;;;39.85;24.10;;;;;;;6.03;74.41;99829.97;4949072;28;20503;-85
2021/05/01 05:14:01;;;;;;;38.85;23.30;;;;;;;6.24;74.58;99831.91;4954331;28;20126;-84
2021/05/01 05:16:28;;;;;;;39.13;24.02;;;;;;;6.30;74.36;99833.72;4949783;28;20358;-83
2021/05/01 05:18:56;;;;;;;38.05;23.30;;;;;;;6.23;74.51;99827.63;4948093;28;20229;-81
2021/05/01 05:21:23;;;;;;;38.35;22.60;;;;;;;6.38;74.54;99835.53;4951056;28;20122;-82
2021/05/01 05:23:50;;;;;;;34.28;21.92;;;;;;;6.56;74.15;99837.50;4946327;28;20122;-83
2021/05/01 05:26:17;;;;;;;34.00;20.33;;;;;;;6.50;74.46;99842.63;4946323;28;20054;-83
2021/05/01 05:28:47;;;;;;;33.58;20.65;;;;;;;6.52;73.96;99840.91;4949335;28;20053;-84
2021/05/01 05:31:13;;;;;;;30.83;18.23;;;;;;;6.69;73.59;99841.97;4947435;28;20139;-84
2021/05/01 05:33:40;;;;;;;26.83;16.52;;;;;;;6.08;75.28;99840.38;4949252;28;20054;-82
2021/05/01 05:36:07;;;;;;;27.05;17.88;;;;;;;6.42;74.88;99844.25;4949211;28;20074;-82
2021/05/01 05:38:33;;;;;;;26.05;18.40;;;;;;;6.59;74.40;99842.72;4936680;28;20043;-82
2021/05/01 05:40:59;;;;;;;26.70;18.38;;;;;;;6.86;73.99;99847.31;4952138;28;20074;-81
2021/05/01 05:43:29;;;;;;;27.35;17.98;;;;;;;6.84;73.24;99842.13;4934210;28;20050;-82
2021/05/01 05:45:55;;;;;;;29.17;16.92;;;;;;;7.14;73.17;99841.53;4929028;28;20117;-81
2021/05/01 05:48:22;;;;;;;28.92;17.08;;;;;;;7.08;73.11;99848.41;4945987;28;20081;-80
2021/05/01 05:50:48;;;;;;;27.25;17.33;;;;;;;7.20;72.84;99851.97;4943323;28;20077;-81
2021/05/01 05:53:15;;;;;;;28.80;16.33;;;;;;;7.17;72.79;99846.75;4931859;28;20197;-82
2021/05/01 05:55:42;;;;;;;24.55;15.50;;;;;;;7.25;72.95;99852.00;4949830;28;20522;-81
2021/05/01 05:58:09;;;;;;;25.90;15.68;;;;;;;7.53;71.96;99851.34;4945930;28;20062;-79
2021/05/01 06:00:36;;;;;;;24.30;15.15;;;;;;;7.43;72.41;99849.56;4936439;29;20134;-81
2021/05/01 06:03:04;;;;;;;26.75;15.45;;;;;;;7.27;73.02;99847.69;4953069;28;20054;-81
2021/05/01 06:05:38;;;;;;;29.65;14.93;;;;;;;7.49;72.18;99852.19;4968885;28;20141;-80
2021/05/01 06:08:05;;;;;;;24.40;14.15;;;;;;;7.55;73.21;99859.16;4966584;28;20047;-81
2021/05/01 06:10:33;;;;;;;25.02;15.77;;;;;;;8.16;72.42;99863.00;4967246;28;20154;-82
2021/05/01 06:13:03;;;;;;;25.55;15.77;;;;;;;8.72;73.33;99869.34;4932862;28;20418;-81
2021/05/01 06:15:30;;;;;;;22.85;14.70;;;;;;;9.15;71.09;99872.91;4964525;28;20059;-82
2021/05/01 06:17:59;;;;;;;20.27;13.02;;;;;;;9.12;72.64;99870.28;4930310;28;20075;-82
2021/05/01 06:20:27;;;;;;;21.75;12.63;;;;;;;9.15;68.97;99869.44;4950885;28;20067;-81
2021/05/01 06:22:54;;;;;;;20.35;11.05;;;;;;;9.14;68.95;99885.94;4948020;28;20153;-81
2021/05/01 06:25:21;;;;;;;14.65;10.25;;;;;;;9.12;67.66;99879.84;4966261;28;20043;-82
2021/05/01 06:27:53;;;;;;;15.52;10.05;;;;;;;9.15;68.62;99869.44;4954676;28;20063;-82
2021/05/01 06:30:21;;;;;;;23.17;10.70;;;;;;;9.03;68.24;99874.63;4948528;28;20078;-82
2021/05/01 06:32:48;;;;;;;16.90;9.15;;;;;;;9.11;66.41;99870.31;4950724;28;20768;-81
2021/05/01 06:35:15;;;;;;;14.63;9.20;;;;;;;9.04;67.68;99881.56;4963470;28;20146;-82
2021/05/01 06:37:41;;;;;;;18.08;9.55;;;;;;;9.28;67.64;99878.13;4934046;28;20040;-83
2021/05/01 06:40:12;;;;;;;19.77;9.20;;;;;;;8.56;69.73;99887.53;4934534;28;20511;-79
2021/05/01 06:42:58;;;;;;;15.13;9.38;;;;;;;9.73;66.59;99880.75;4955233;28;20050;-82
2021/05/01 06:45:25;;;;;;;17.13;9.57;;;;;;;9.28;66.06;99878.13;4941962;28;20099;-82
2021/05/01 06:47:53;;;;;;;20.73;10.75;;;;;;;9.20;66.96;99880.75;4950908;28;20058;-82
2021/05/01 06:50:27;;;;;;;24.15;10.25;;;;;;;9.46;66.43;99879.00;4932060;28;20043;-82
2021/05/01 06:52:58;;;;;;;15.23;9.25;;;;;;;9.06;67.65;99882.47;4949828;28;20066;-81
2021/05/01 06:55:27;;;;;;;17.25;9.95;;;;;;;9.54;66.89;99879.00;4952283;28;20074;-80
2021/05/01 06:57:55;;;;;;;20.95;9.63;;;;;;;9.52;66.29;99878.13;4941948;28;20458;-81
2021/05/01 07:00:25;;;;;;;19.00;9.15;;;;;;;9.22;67.83;99883.31;4944682;28;20051;-81
2021/05/01 07:03:11;;;;;;;17.48;9.73;;;;;;;9.68;66.16;99886.81;4951349;28;20051;-81
2021/05/01 07:05:38;;;;;;;17.60;9.50;;;;;;;9.07;66.97;99892.88;4950749;28;20054;-80
2021/05/01 07:08:06;;;;;;;17.40;9.68;;;;;;;9.72;67.04;99891.16;4952369;28;20078;-80
2021/05/01 07:10:32;;;;;;;18.00;10.13;;;;;;;10.34;65.01;99891.06;4947945;28;20491;-80
2021/05/01 07:13:00;;;;;;;15.48;9.15;;;;;;;10.40;64.01;99894.53;4951728;28;20055;-80
2021/05/01 07:15:26;;;;;;;15.45;8.15;;;;;;;10.54;62.72;99891.00;4950773;28;20824;-80
2021/05/01 07:17:53;;;;;;;12.65;7.97;;;;;;;10.06;62.85;99892.84;4946975;28;20058;-79
2021/05/01 07:20:22;;;;;;;16.52;7.65;;;;;;;9.57;64.72;99898.13;4951137;28;20122;-81
2021/05/01 07:22:53;;;;;;;10.80;7.45;;;;;;;9.97;64.81;99887.66;4950241;28;20066;-80
2021/05/01 07:25:24;;;;;;;14.90;7.97;;;;;;;10.40;63.01;99893.66;4948632;28;20084;-80
2021/05/01 07:27:59;;;;;;;32.60;15.38;;;;;;;10.02;64.68;99899.81;4967358;28;20471;-80
2021/05/01 07:30:28;;;;;;;19.40;9.45;;;;;;;10.22;64.48;99889.34;4946218;28;20499;-80
2021/05/01 07:33:03;;;;;;;11.55;6.90;;;;;;;10.54;62.87;99898.84;4944205;28;20062;-81
2021/05/01 07:35:31;;;;;;;19.25;7.63;;;;;;;11.14;60.67;99900.25;4946938;28;20047;-81
2021/05/01 07:38:05;;;;;;;12.95;6.55;;;;;;;11.16;60.94;99899.38;4947235;28;20146;-80
2021/05/01 07:40:31;;;;;;;11.45;7.05;;;;;;;10.92;62.28;99896.91;4943209;28;20043;-81
2021/05/01 07:43:00;;;;;;;11.20;6.18;;;;;;;11.15;61.73;99894.16;4949519;28;20055;-80
2021/05/01 07:45:28;;;;;;;13.20;6.65;;;;;;;11.34;60.28;99901.84;4949396;28;20447;-81
2021/05/01 07:47:56;;;;;;;12.13;6.00;;;;;;;11.80;59.43;99911.97;4948810;28;20404;-81
2021/05/01 07:50:26;;;;;;;15.93;6.22;;;;;;;11.95;58.25;99893.50;4946648;28;20059;-81
2021/05/01 07:52:54;;;;;;;9.35;5.75;;;;;;;12.23;58.92;99905.44;4945176;28;20051;-81
2021/05/01 07:55:22;;;;;;;19.05;6.30;;;;;;;12.77;56.72;99903.03;4944119;28;20388;-80
2021/05/01 07:57:50;;;;;;;10.77;5.70;;;;;;;12.58;57.40;99906.78;4949863;28;20130;-81
2021/05/01 08:00:18;;;;;;;11.40;6.03;;;;;;;13.10;55.65;99909.59;4948491;28;20127;-81
2021/05/01 08:02:44;;;;;;;11.00;5.22;;;;;;;12.45;55.83;99918.31;4935537;28;20039;-81
2021/05/01 08:05:13;;;;;;;11.50;4.70;;;;;;;12.57;56.91;99913.78;4956838;28;20051;-81
2021/05/01 08:07:40;;;;;;;9.75;4.45;;;;;;;12.75;55.84;99919.69;4965787;28;20047;-80
2021/05/01 08:10:08;;;;;;;12.13;5.75;;;;;;;13.13;55.63;99917.47;4949624;28;20130;-82
2021/05/01 08:12:38;;;;;;;8.50;4.80;;;;;;;13.05;54.77;99917.53;4964512;28;21599;-82
2021/05/01 08:15:08;;;;;;;9.07;4.63;;;;;;;12.80;55.32;99920.50;4942054;28;20536;-80
2021/05/01 08:17:35;;;;;;;12.30;4.90;;;;;;;13.24;53.72;99919.91;4947635;28;20067;-82
2021/05/01 08:20:03;;;;;;;14.43;4.38;;;;;;;12.90;55.96;99924.75;4966774;28;20433;-80
2021/05/01 08:22:30;;;;;;;11.13;4.32;;;;;;;13.31;55.14;99925.06;4946864;28;20126;-83
2021/05/01 08:24:57;;;;;;;13.48;4.75;;;;;;;13.93;51.56;99924.06;4948020;28;20055;-80
2021/05/01 19:31:31;;;;;;;14.15;4.50;;;;;;;7.63;69.37;100009.16;5044196;27;20458;-81
2021/05/01 19:33:59;;;;;;;10.45;4.93;;;;;;;7.96;68.84;100010.34;5059498;28;20396;-78
2021/05/01 19:36:26;;;;;;;6.60;5.05;;;;;;;7.49;71.89;100012.47;5038080;28;20042;-77
2021/05/01 19:38:53;;;;;;;7.82;5.28;;;;;;;7.49;71.67;100008.16;5000247;28;20386;-77
2021/05/01 19:41:20;;;;;;;10.38;5.60;;;;;;;7.92;70.73;100011.16;4992984;28;20041;-77
2021/05/01 19:43:49;;;;;;;9.63;5.28;;;;;;;7.91;70.18;100012.91;5000629;28;20108;-78
2021/05/01 19:46:17;;;;;;;8.65;5.45;;;;;;;7.63;71.39;100013.50;4998976;28;20060;-80
2021/05/01 19:48:46;;;;;;;7.00;4.65;;;;;;;7.65;71.03;100011.78;4983668;28;20045;-79
2021/05/01 19:51:14;;;;;;;7.68;4.55;;;;;;;8.11;69.05;100015.63;4961367;28;20047;-77
2021/05/01 19:53:42;;;;;;;6.55;5.28;;;;;;;8.35;68.60;100013.25;4981234;28;20042;-79
2021/05/01 19:56:08;;;;;;;8.35;5.28;;;;;;;8.60;68.25;100025.56;4976623;28;20188;-81
2021/05/01 19:58:36;;;;;;;6.07;5.00;;;;;;;8.72;68.33;100017.81;4984405;28;20386;-80
2021/05/01 20:01:04;;;;;;;7.80;5.13;;;;;;;8.67;68.20;100022.13;4962920;28;20046;-81
2021/05/01 20:03:31;;;;;;;6.03;4.50;;;;;;;8.87;67.54;100022.25;4958283;28;20042;-78
2021/05/01 20:06:01;;;;;;;7.70;5.10;;;;;;;8.54;69.01;100028.13;4959549;28;20658;-78
2021/05/01 20:12:09;;;;;;;9.30;5.10;;;;;;;8.48;67.77;100032.44;5039708;28;20389;-81
2021/05/01 20:14:35;;;;;;;5.78;4.60;;;;;;;8.67;67.77;100027.34;5007109;28;20429;-78
2021/05/01 20:17:02;;;;;;;15.82;5.55;;;;;;;8.45;68.75;100024.59;5037882;28;20057;-83
2021/05/01 20:19:30;;;;;;;10.98;5.70;;;;;;;8.34;68.90;100029.75;5019681;28;20084;-83
2021/05/01 20:21:57;;;;;;;7.65;5.50;;;;;;;8.65;68.25;100036.00;5004928;28;20073;-82
2021/05/01 20:24:23;;;;;;;7.25;5.63;;;;;;;8.37;69.20;100021.94;5023258;28;20408;-81
2021/05/01 20:26:50;;;;;;;8.77;5.38;;;;;;;8.41;68.38;100028.03;5041336;28;20041;-79
2021/05/01 20:29:16;;;;;;;8.23;5.70;;;;;;;8.42;68.37;100019.38;5053125;28;20465;-79
2021/05/01 20:31:43;;;;;;;9.07;5.15;;;;;;;8.41;68.47;100021.09;5032281;28;20041;-79
2021/05/01 20:34:12;;;;;;;7.65;5.60;;;;;;;8.25;69.35;100016.59;5058703;28;20068;-78
2021/05/01 20:36:39;;;;;;;9.25;5.43;;;;;;;8.21;69.01;100022.66;5049980;28;20442;-81
2021/05/01 20:39:07;;;;;;;8.88;5.90;;;;;;;8.11;69.21;100023.44;5042460;28;20046;-80
2021/05/01 20:41:35;;;;;;;10.18;5.43;;;;;;;8.07;70.24;100024.28;5044875;28;20445;-80
2021/05/01 20:44:02;;;;;;;8.52;5.90;;;;;;;8.13;69.90;100027.81;5019275;28;20041;-79
2021/05/01 20:46:29;;;;;;;10.20;5.57;;;;;;;8.20;69.33;100026.97;5021131;28;20064;-82
2021/05/01 20:48:56;;;;;;;9.82;5.28;;;;;;;7.86;70.34;100027.59;5036532;28;20664;-80
2021/05/01 20:51:22;;;;;;;8.10;5.53;;;;;;;7.80;70.41;100025.81;5040212;28;20041;-80
2021/05/01 20:53:53;;;;;;;9.05;5.25;;;;;;;8.08;69.42;100026.03;5038772;28;20393;-79
2021/05/01 20:56:20;;;;;;;8.07;6.50;;;;;;;8.07;69.51;100032.97;5034446;28;20057;-78
2021/05/01 20:58:48;;;;;;;7.53;5.60;;;;;;;8.03;70.11;100032.94;5038490;28;20391;-78
2021/05/01 21:01:14;;;;;;;10.50;5.55;;;;;;;8.05;70.05;100026.91;5026771;28;20045;-79
2021/05/01 21:03:43;;;;;;;10.07;5.72;;;;;;;7.96;70.35;100028.53;5025633;28;20098;-77
2021/05/01 21:06:11;;;;;;;6.70;5.38;;;;;;;8.14;69.63;100032.16;5019763;28;20136;-78
2021/05/01 21:08:40;;;;;;;7.38;5.75;;;;;;;8.14;69.80;100020.88;5028668;28;20449;-78
2021/05/01 21:11:06;;;;;;;12.55;8.32;;;;;;;8.10;70.09;100024.31;5037221;28;20140;-79
2021/05/01 21:13:32;;;;;;;10.82;6.70;;;;;;;8.23;69.76;100026.16;5028393;28;20600;-77
2021/05/01 21:15:59;;;;;;;13.60;7.00;;;;;;;8.24;69.55;100018.38;5021328;28;20503;-75
2021/05/01 21:18:25;;;;;;;9.77;6.13;;;;;;;8.11;69.42;100019.09;5025385;28;20052;-76
2021/05/01 21:20:55;;;;;;;8.40;5.75;;;;;;;8.16;69.66;100021.75;5026115;28;20079;-76
2021/05/01 21:23:22;;;;;;;8.40;6.68;;;;;;;8.26;69.52;100021.84;5024547;28;20061;-77
2021/05/01 21:25:49;;;;;;;8.38;6.47;;;;;;;8.33;68.97;100025.41;5027166;28;20056;-76
2021/05/01 21:28:16;;;;;;;16.13;7.82;;;;;;;8.17;69.30;100015.69;5036143;28;20920;-78
2021/05/01 21:30:43;;;;;;;13.45;7.18;;;;;;;8.15;69.23;100018.28;5023403;28;20396;-78
2021/05/01 21:33:10;;;;;;;10.38;6.70;;;;;;;8.20;69.38;100016.56;5024718;28;20073;-76
2021/05/01 21:35:36;;;;;;;8.93;7.13;;;;;;;8.30;69.04;100018.41;5021367;28;20130;-78
2021/05/01 21:38:04;;;;;;;9.05;6.60;;;;;;;8.44;68.47;100015.06;5027383;28;20124;-76
2021/05/01 21:40:31;;;;;;;11.18;6.82;;;;;;;8.52;68.27;100021.16;5023947;28;20049;-76
2021/05/01 21:42:58;;;;;;;9.52;7.40;;;;;;;8.51;68.31;100020.28;5040557;28;20354;-76
2021/05/01 21:45:24;;;;;;;12.80;7.55;;;;;;;8.52;68.03;100026.38;5043445;28;20492;-78
2021/05/01 21:47:51;;;;;;;11.07;7.78;;;;;;;8.55;67.85;100021.19;5030368;28;20067;-76
2021/05/01 21:50:18;;;;;;;8.30;6.10;;;;;;;8.42;67.78;100022.84;5041631;28;20048;-76
2021/05/01 21:52:45;;;;;;;7.93;6.55;;;;;;;8.35;68.33;100023.66;5039364;28;20056;-77
2021/05/01 21:55:12;;;;;;;10.73;6.40;;;;;;;8.25;68.57;100014.00;5019469;28;20053;-76
2021/05/01 21:57:39;;;;;;;7.53;5.38;;;;;;;8.42;67.94;100017.63;5028188;28;20499;-78
2021/05/01 22:00:59;;;;;;;8.70;6.38;;;;;;;8.62;67.88;100025.56;5025228;28;20119;-77
2021/05/01 22:03:28;;;;;;;8.07;6.45;;;;;;;8.22;68.92;100017.47;4999407;28;20064;-76
2021/05/01 22:05:56;;;;;;;9.00;6.68;;;;;;;8.50;67.89;100018.53;5025724;28;20041;-76
2021/05/01 22:08:25;;;;;;;11.20;6.75;;;;;;;8.31;67.58;100032.31;5021212;28;20072;-77
2021/05/01 22:10:52;;;;;;;9.82;6.60;;;;;;;8.18;68.66;100022.63;5021826;28;20488;-78
2021/05/01 22:13:25;;;;;;;10.45;5.95;;;;;;;8.20;68.28;100023.53;5021921;28;20593;-77
2021/05/01 22:15:55;;;;;;;8.50;6.18;;;;;;;8.30;67.59;100017.53;5019353;28;20041;-76
2021/05/01 22:18:22;;;;;;;8.02;6.85;;;;;;;7.90;68.71;100026.75;5007197;28;20060;-78
2021/05/01 22:21:12;;;;;;;11.32;7.53;;;;;;;8.26;68.78;100020.97;5024686;28;20048;-77
2021/05/01 22:26:25;;;;;;;13.60;9.13;;;;;;;8.40;67.61;100014.13;5053311;28;20045;-78
2021/05/01 22:28:56;;;;;;;14.93;8.02;;;;;;;8.19;68.20;100016.59;5024669;28;20085;-77
2021/05/01 22:31:26;;;;;;;10.68;7.65;;;;;;;8.14;68.91;100021.75;5025482;28;20051;-77
2021/05/01 22:33:54;;;;;;;10.02;7.63;;;;;;;8.22;68.90;100019.19;5024241;28;20052;-76
2021/05/01 22:36:22;;;;;;;11.95;8.18;;;;;;;8.31;68.42;100024.50;5036770;28;20053;-77
2021/05/01 22:38:48;;;;;;;15.23;8.15;;;;;;;8.43;68.00;100019.38;5037821;28;20112;-78
2021/05/01 22:41:15;;;;;;;12.73;8.40;;;;;;;8.63;67.19;100017.75;5040159;28;20126;-77
2021/05/01 22:43:44;;;;;;;14.00;8.32;;;;;;;8.51;67.60;100020.28;5035703;28;20056;-76
2021/05/01 22:46:11;;;;;;;14.07;8.93;;;;;;;8.46;68.04;100027.22;5024207;28;20041;-76